createdAt,value
2018-04-08T00:03:31.302Z,8.31
2018-04-08T00:09:22.016Z,7.59
2018-04-08T00:15:12.638Z,8.87
2018-04-08T00:21:03.261Z,8.02
2018-04-08T00:26:53.937Z,7.49
2018-04-08T00:32:44.596Z,7.49
2018-04-08T00:38:35.211Z,7.03
2018-04-08T00:44:25.862Z,8.11
2018-04-08T00:50:16.515Z,7.74
2018-04-08T00:56:07.156Z,6.91
2018-04-08T01:01:57.783Z,7.3
2018-04-08T01:07:48.446Z,7.95
2018-04-08T01:13:39.137Z,6.58
2018-04-08T01:19:29.731Z,6.22
2018-04-08T01:25:20.379Z,6.27
2018-04-08T01:31:11.006Z,5.91
2018-04-08T01:37:01.689Z,6.28
2018-04-08T01:42:52.294Z,5.55
2018-04-08T01:48:43.029Z,5.58
2018-04-08T01:54:33.661Z,5.44
2018-04-08T02:00:24.285Z,4.72
2018-04-08T02:06:14.893Z,5.33
2018-04-08T02:12:05.561Z,5.89
2018-04-08T02:17:56.160Z,5.19
2018-04-08T02:23:46.813Z,4.99
2018-04-08T02:29:37.472Z,5.84
2018-04-08T02:35:28.175Z,5.82
2018-04-08T02:41:18.794Z,5.87
2018-04-08T02:47:09.437Z,6.28
2018-04-08T02:53:00.069Z,6.55
2018-04-08T02:58:50.733Z,7.69
2018-04-08T03:04:41.340Z,7.32
2018-04-08T03:10:31.984Z,7.76
2018-04-08T03:16:22.623Z,8.21
2018-04-08T03:22:13.269Z,8.02
2018-04-08T03:28:03.903Z,7.85
2018-04-08T03:33:54.571Z,7.13
2018-04-08T03:39:45.236Z,7.18
2018-04-08T03:45:35.826Z,7.63
2018-04-08T03:51:26.465Z,7.85
2018-04-08T03:57:17.157Z,7.55
2018-04-08T04:03:07.745Z,8.04
2018-04-08T04:08:58.418Z,7.14
2018-04-08T04:14:49.045Z,7.49
2018-04-08T04:20:39.675Z,7.22
2018-04-08T04:26:30.332Z,7.25
2018-04-08T04:32:20.937Z,6.61
2018-04-08T04:38:11.581Z,6.76
2018-04-08T04:44:02.195Z,6.4
2018-04-08T04:49:52.837Z,5.89
2018-04-08T04:55:43.509Z,6.06
2018-04-08T05:01:34.124Z,6.17
2018-04-08T05:07:24.740Z,7.53
2018-04-08T05:13:15.440Z,7.38
2018-04-08T05:19:06.042Z,7.84
2018-04-08T05:24:56.630Z,7.35
2018-04-08T05:30:47.272Z,9.72
2018-04-08T05:36:37.878Z,12.69
2018-04-08T05:42:28.520Z,14.15
2018-04-08T05:48:19.165Z,21.42
2018-04-08T05:54:09.785Z,15.85
2018-04-08T06:00:00.427Z,9.46
2018-04-08T06:05:51.073Z,9.35
2018-04-08T06:11:41.840Z,7.52
2018-04-08T06:17:32.394Z,6.92
2018-04-08T06:23:22.997Z,6.47
2018-04-08T06:29:13.640Z,5.6
2018-04-08T06:35:04.273Z,6.18
2018-04-08T06:40:54.931Z,7.56
2018-04-08T06:46:45.571Z,9.98
2018-04-08T06:52:36.225Z,12.37
2018-04-08T06:58:26.883Z,14
2018-04-08T07:04:17.521Z,13.59
2018-04-08T07:10:08.205Z,14
2018-04-08T07:15:58.852Z,14.41
2018-04-08T07:21:49.529Z,12.21
2018-04-08T07:27:40.189Z,9.1
2018-04-08T07:33:30.854Z,4.28
2018-04-08T07:39:21.526Z,3.5
2018-04-08T07:45:12.155Z,3.19
2018-04-08T07:51:02.860Z,3.52
2018-04-08T07:56:53.503Z,3.26
2018-04-08T08:02:44.156Z,4.43
2018-04-08T08:08:34.818Z,4.35
2018-04-08T08:14:25.483Z,3.88
2018-04-08T08:20:16.202Z,4.21
2018-04-08T08:26:06.816Z,3.67
2018-04-08T08:31:57.485Z,3.91
2018-04-08T08:37:48.181Z,4.08
2018-04-08T08:43:38.910Z,5.48
2018-04-08T08:49:29.531Z,3.69
2018-04-08T08:55:20.218Z,4.67
2018-04-08T09:01:10.895Z,5.05
2018-04-08T09:07:01.581Z,5.35
2018-04-08T09:12:52.258Z,4.12
2018-04-08T09:18:42.944Z,4.1
2018-04-08T09:24:33.659Z,4.19
2018-04-08T09:30:24.336Z,4.57
2018-04-08T09:36:15.062Z,4.35
2018-04-08T09:42:05.718Z,3.6
2018-04-08T09:47:56.436Z,2.61
2018-04-08T09:53:47.135Z,2.53
2018-04-08T09:59:37.822Z,2.87
2018-04-08T10:05:28.550Z,2.99
2018-04-08T10:11:19.242Z,2.69
2018-04-08T10:17:09.970Z,2.85
2018-04-08T10:23:00.631Z,2.98
2018-04-08T10:28:51.340Z,2.54
2018-04-08T10:34:42.017Z,2.53
2018-04-08T10:40:32.749Z,2.23
2018-04-08T10:46:23.430Z,2.22
2018-04-08T10:52:14.194Z,2.58
2018-04-08T10:58:04.832Z,2.51
2018-04-08T11:03:55.563Z,1.72
2018-04-08T11:09:46.263Z,1.44
2018-04-08T11:15:37.029Z,1.04
2018-04-08T11:21:27.732Z,1.45
2018-04-08T11:27:18.401Z,1.61
2018-04-08T11:33:09.095Z,1.67
2018-04-08T11:38:59.813Z,1.49
2018-04-08T11:44:50.605Z,1.67
2018-04-08T11:50:41.230Z,1.32
2018-04-08T11:56:31.955Z,0.91
2018-04-08T12:02:22.704Z,1.01
2018-04-08T12:08:13.405Z,0.9
2018-04-08T12:14:04.164Z,1.1
2018-04-08T12:19:54.851Z,1.03
2018-04-08T12:25:45.596Z,0.9
2018-04-08T12:31:36.295Z,1.51
2018-04-08T12:37:27.018Z,2.07
2018-04-08T12:43:17.783Z,1.92
2018-04-08T12:49:08.557Z,1.83
2018-04-08T12:54:59.267Z,1.09
2018-04-08T13:00:50.100Z,1.6
2018-04-08T13:06:40.840Z,2.72
2018-04-08T13:12:31.703Z,1.74
2018-04-08T13:18:22.441Z,1.63
2018-04-08T13:24:13.268Z,1.35
2018-04-08T13:30:04.074Z,1.42
2018-04-08T13:35:54.845Z,1.11
2018-04-08T13:41:45.651Z,1.71
2018-04-08T13:47:36.464Z,1.22
2018-04-08T13:53:27.340Z,4.47
2018-04-08T13:59:18.121Z,1.39
2018-04-08T14:05:08.907Z,1.44
2018-04-08T14:10:59.715Z,1.59
2018-04-08T14:16:50.567Z,1.45
2018-04-08T14:22:41.419Z,1.73
2018-04-08T14:28:32.203Z,1.01
2018-04-08T14:34:23.032Z,1.15
2018-04-08T14:40:13.806Z,1.64
2018-04-08T14:46:04.605Z,1.33
2018-04-08T14:51:55.449Z,1.46
2018-04-08T14:57:46.215Z,1.23
2018-04-08T15:03:36.969Z,1.32
2018-04-08T15:09:27.712Z,1.06
2018-04-08T15:15:18.521Z,1.36
2018-04-08T15:21:09.229Z,1.33
2018-04-08T15:26:59.999Z,1.95
2018-04-08T15:32:50.728Z,1.59
2018-04-08T15:38:41.529Z,1.36
2018-04-08T15:44:32.247Z,2.5
2018-04-08T15:50:22.950Z,3.18
2018-04-08T15:56:13.693Z,1.77
2018-04-08T16:02:04.444Z,2.12
2018-04-08T16:07:55.173Z,2.72
2018-04-08T16:13:45.893Z,4.26
2018-04-08T16:19:36.653Z,4.28
2018-04-08T16:25:27.337Z,2.81
2018-04-08T16:31:18.077Z,2.66
2018-04-08T16:37:08.872Z,4.28
2018-04-08T16:42:59.548Z,4.16
2018-04-08T16:48:50.258Z,4.36
2018-04-08T16:54:41.026Z,3.83
2018-04-08T17:00:31.770Z,2.89
2018-04-08T17:06:22.437Z,3.13
2018-04-08T17:12:13.165Z,3.66
2018-04-08T17:18:03.893Z,3.21
2018-04-08T17:23:54.609Z,4.33
2018-04-08T17:29:45.351Z,4.45
2018-04-08T17:35:36.037Z,2.99
2018-04-08T17:41:26.782Z,2.47
2018-04-08T17:47:17.471Z,1.94
2018-04-08T17:53:08.184Z,2.09
2018-04-08T17:58:58.979Z,7.78
2018-04-08T18:04:49.618Z,3.28
2018-04-08T18:10:40.289Z,2.64
2018-04-08T18:16:30.990Z,4.11
2018-04-08T18:22:21.769Z,6.38
2018-04-08T18:28:12.429Z,4.13
2018-04-08T18:34:03.102Z,5.67
2018-04-08T18:39:53.841Z,3.63
2018-04-08T18:45:44.544Z,3.86
2018-04-08T18:51:35.253Z,4.12
2018-04-08T18:57:25.924Z,4.01
2018-04-08T19:03:16.642Z,3.09
2018-04-08T19:09:07.336Z,3.03
2018-04-08T19:14:58.015Z,3.37
2018-04-08T19:20:48.699Z,3.61
2018-04-08T19:26:39.454Z,4.14
2018-04-08T19:32:30.166Z,3.51
2018-04-08T19:38:20.800Z,4.02
2018-04-08T19:44:11.560Z,3.54
2018-04-08T19:50:02.229Z,3.58
2018-04-08T19:55:52.963Z,4.36
2018-04-08T20:01:43.686Z,3.86
2018-04-08T20:07:34.306Z,3.21
2018-04-08T20:13:24.977Z,3.6
2018-04-08T20:19:15.690Z,3.58
2018-04-08T20:25:06.454Z,3.49
2018-04-08T20:30:57.085Z,4
2018-04-08T20:36:47.776Z,3.4
2018-04-08T20:42:38.455Z,5.66
2018-04-08T20:48:29.150Z,4.68
2018-04-08T20:54:19.804Z,4.81
2018-04-08T21:00:10.485Z,4.64
2018-04-08T21:06:01.168Z,5.11
2018-04-08T21:11:51.839Z,4.9
2018-04-08T21:17:42.554Z,4.75
2018-04-08T21:23:33.215Z,5.35
2018-04-08T21:29:23.908Z,5.16
2018-04-08T21:35:14.606Z,5.79
2018-04-08T21:41:05.232Z,5.25
2018-04-08T21:46:55.942Z,5.59
2018-04-08T21:52:46.598Z,4.63
2018-04-08T21:58:37.274Z,5.4
2018-04-08T22:04:27.933Z,5.82
2018-04-08T22:10:18.636Z,5.3
2018-04-08T22:16:09.296Z,5.56
2018-04-08T22:21:59.967Z,5.79
2018-04-08T22:27:50.638Z,4.85
2018-04-08T22:33:41.349Z,4.09
2018-04-08T22:39:31.963Z,4.3
2018-04-08T22:45:22.656Z,4.3
2018-04-08T22:51:13.320Z,4.05
2018-04-08T22:57:04.013Z,4.83
2018-04-08T23:02:54.736Z,4.75
2018-04-08T23:08:45.332Z,5.61
2018-04-08T23:14:36.013Z,5.25
2018-04-08T23:20:26.672Z,5.35
2018-04-08T23:26:17.381Z,5.12
2018-04-08T23:32:08.023Z,5.12
2018-04-08T23:37:58.700Z,5.62
2018-04-08T23:43:49.394Z,4.28
2018-04-08T23:49:40.071Z,4.14
2018-04-08T23:55:30.800Z,4.4
